Main page
METAR-TAF:

METAR-TAF

Airports :

Toncontín International Airport

Tegucigalpa, Honduras

latitude: 14-03N, longitude: 087-13W, elevation: 994 m

Current weather observation

The report was made 47 minutes ago, at 01:00 UTC
Wind 10 kt from the East, varying between East/Northeast and East
Temperature 22°C
Humidity 73%
Pressure 1020 hPa
Visibility 10 km or more
Scattered clouds at a height of 3000 ft

METAR: MHTG 060100Z 10010KT 070V100 9999 SCT030 22/17 Q1020 A3012 NOSIG

Time: 19:47 (01:47 UTC)

Forecast

The report was made 2 hours and 47 minutes ago, at 23:00 UTC
Forecast valid from 06 at 00 UTC to 06 at 24 UTC
Wind 10 kt from the North
Visibility 10 km or more
Broken clouds at a height of 2800 ft
Becoming
from 06 at 06 UTC to 06 at 08 UTC
Wind 5 kt from the Northeast
Scattered clouds at a height of 2600 ft

TAF: MHTG 052300Z 0600/0624 36010KT 9999 BKN028 TX28/0620Z TN19/0612Z BECMG 0606/0608 05005KT SCT026

Weather observations and forecasts of more than 4000 airports (METAR and TAF reports).

The available stations are represented by yellow and red dots on the map.

Hover mouse over dot to see the name of the station.

Then click to see weather observations and forecasts.

To change the map : click on the green buttons with a black cross to zoom in, on the green button with a dash to zoom out, or on the green arrows for adjacent maps.


METAR-TAF: